This is the latest recevied weather packets stored in our database for station/object EA7AIS-10. If no packets are shown the sender has not sent any weather packets the latest 10 day(s).
| Time | Temp. | Humidity | Pressure | Rain* | Wind** | Luminosity | Snow |
|---|---|---|---|---|---|---|---|
| 1777903294 | 21.67° C | 38% | 1012.5 hPa | - | - | - | - |
| 1777902394 | 22.22° C | 39% | 1012.6 hPa | - | - | - | - |
| 1777901494 | 22.78° C | 39% | 1012.6 hPa | - | - | - | - |
| 1777899694 | 22.78° C | 40% | 1012.7 hPa | - | - | - | - |
| 1777898793 | 22.78° C | 41% | 1012.6 hPa | - | - | - | - |
| 1777897893 | 22.78° C | 41% | 1012.7 hPa | - | - | - | - |
| 1777896996 | 22.78° C | 44% | 1012.8 hPa | - | - | - | - |
| 1777896093 | 22.78° C | 45% | 1013 hPa | - | - | - | - |
| 1777895193 | 22.78° C | 45% | 1013 hPa | - | - | - | - |
| 1777894293 | 22.78° C | 46% | 1013 hPa | - | - | - | - |
| 1777893393 | 22.78° C | 45% | 1013.2 hPa | - | - | - | - |
| 1777892493 | 22.78° C | 46% | 1013.1 hPa | - | - | - | - |
| 1777891592 | 22.22° C | 49% | 1013.3 hPa | - | - | - | - |
| 1777890693 | 22.22° C | 47% | 1013.3 hPa | - | - | - | - |
| 1777889792 | 22.22° C | 46% | 1013.1 hPa | - | - | - | - |
| 1777888892 | 21.67° C | 49% | 1013.1 hPa | - | - | - | - |
| 1777887992 | 21.11° C | 51% | 1013.2 hPa | - | - | - | - |
| 1777887093 | 21.11° C | 51% | 1013.3 hPa | - | - | - | - |
| 1777886192 | 22.78° C | 49% | 1013.3 hPa | - | - | - | - |
| 1777884392 | 24.44° C | 47% | 1013.2 hPa | - | - | - | - |
| 1777883492 | 23.89° C | 49% | 1013.2 hPa | - | - | - | - |
| 1777882592 | 23.89° C | 51% | 1013.1 hPa | - | - | - | - |
| 1777881692 | 23.33° C | 51% | 1013 hPa | - | - | - | - |
| 1777880792 | 22.78° C | 53% | 1012.8 hPa | - | - | - | - |
| 1777879892 | 22.78° C | 55% | 1012.9 hPa | - | - | - | - |
* Rain since midnight (hover to see other rain measurements)
** Current wind speed in m/s (hover to see current wind gust speed)